Iloilo, Philippines
Current Conditions -  °F | °C
As of 3:00 PM on Thursday 18 Dec 2014 (Local Time) from RPVM Reporting Station
Broken Clouds Broken Clouds  
Wind Chill: 86°   Ceiling: 30000
Heat Index: 93°   Visibility: 6mi
Dew Point: 73°   Wind: 13mph
Humidity: 66%   Direction: 20°NNE
Pressure: 29.85"   Gusts: NA
Location:  10.69°N, 122.55°E
Report Text: RPVM 180700Z 02011KT 9999 FEW020 BKN300 30/23 Q1011 RMK A2985
Loading
Personal Weather Stations






























Interactive Weather Map New forecast layout! Learn more

10-Day Weather Forecast

Advertisements
Track Severe Weather on mobile